Time;durP1;ratioP1;P1;durP2;ratioP2;P2;SDS_P1;SDS_P2;PMS_P1;PMS_P2;Temp;Humidity;BMP_temperature;BMP_pressure;BME280_temperature;BME280_humidity;BME280_pressure;Samples;Min_cycle;Max_cycle;Signal;HPM_P1;HPM_P2
2022/12/08 00:01:55;;;;;;;9.00;8.07;;;2.90;99.90;;;;;;5012386;28;21037;-57
2022/12/08 00:04:23;;;;;;;9.13;7.90;;;2.90;99.90;;;;;;5013260;28;20552;-57
2022/12/08 00:09:39;;;;;;;9.73;8.10;;;3.00;99.90;;;;;;5012908;28;20461;-58
2022/12/08 00:12:08;;;;;;;9.20;7.83;;;3.00;99.90;;;;;;5012900;28;20462;-57
2022/12/08 00:14:38;;;;;;;9.07;7.90;;;3.00;99.90;;;;;;5012292;28;20496;-57
2022/12/08 00:17:08;;;;;;;9.90;8.13;;;3.00;99.90;;;;;;5013107;28;20476;-57
2022/12/08 00:19:37;;;;;;;7.80;7.10;;;3.00;99.90;;;;;;5013058;28;20502;-57
2022/12/08 00:22:07;;;;;;;9.83;7.90;;;3.10;99.90;;;;;;5013133;28;20821;-58
2022/12/08 00:24:38;;;;;;;8.77;7.73;;;3.10;99.90;;;;;;5012830;28;20473;-57
2022/12/08 00:27:07;;;;;;;8.57;7.77;;;3.00;99.90;;;;;;5012649;28;20527;-57
2022/12/08 00:29:35;;;;;;;8.27;7.17;;;3.10;99.90;;;;;;5012625;28;20456;-58
2022/12/08 00:32:03;;;;;;;9.03;7.23;;;3.00;99.90;;;;;;5012090;28;21018;-57
2022/12/08 00:34:33;;;;;;;7.57;6.73;;;3.10;99.90;;;;;;5012739;28;20527;-58
2022/12/08 00:37:01;;;;;;;13.37;7.33;;;3.00;99.90;;;;;;5012782;28;20526;-57
2022/12/08 00:39:29;;;;;;;8.90;7.13;;;3.00;99.90;;;;;;5012522;28;20462;-57
2022/12/08 00:42:12;;;;;;;6.97;6.27;;;3.00;99.90;;;;;;5012643;28;20467;-58
2022/12/08 00:44:41;;;;;;;8.10;6.50;;;3.00;99.90;;;;;;5012814;28;20837;-57
2022/12/08 00:47:10;;;;;;;7.63;6.30;;;3.00;99.90;;;;;;5012596;28;20473;-57
2022/12/08 00:49:39;;;;;;;6.77;6.07;;;3.00;99.90;;;;;;5012535;28;20530;-57
2022/12/08 00:52:08;;;;;;;10.60;7.17;;;3.00;99.90;;;;;;5012753;28;20466;-57
2022/12/08 00:54:36;;;;;;;6.73;5.83;;;3.00;99.90;;;;;;5012523;28;20879;-57
2022/12/08 00:57:04;;;;;;;7.77;6.80;;;3.10;99.90;;;;;;5012617;28;20482;-58
2022/12/08 00:59:32;;;;;;;7.17;6.13;;;3.10;99.90;;;;;;5012578;28;20977;-57
2022/12/08 01:02:00;;;;;;;7.77;6.17;;;3.10;99.90;;;;;;5011833;28;20482;-57
2022/12/08 01:04:28;;;;;;;8.43;6.17;;;3.00;99.90;;;;;;5012527;28;20535;-57
2022/12/08 01:06:58;;;;;;;9.00;5.53;;;3.10;99.90;;;;;;5016061;28;20491;-57
2022/12/08 01:09:26;;;;;;;8.67;5.93;;;3.10;99.90;;;;;;5016332;28;20475;-58
2022/12/08 01:11:54;;;;;;;7.07;6.17;;;3.00;99.90;;;;;;5016224;28;20463;-57
2022/12/08 01:14:22;;;;;;;6.43;5.60;;;3.00;99.90;;;;;;5016240;28;20501;-57
2022/12/08 01:16:50;;;;;;;6.53;5.87;;;3.00;99.90;;;;;;5016261;28;20526;-56
2022/12/08 01:19:18;;;;;;;6.10;5.50;;;3.10;99.90;;;;;;5016034;28;20469;-57
2022/12/08 01:21:46;;;;;;;5.97;5.23;;;3.00;99.90;;;;;;5015647;28;20575;-57
2022/12/08 01:24:19;;;;;;;5.83;5.00;;;3.00;99.90;;;;;;5015707;28;20536;-57
2022/12/08 01:26:48;;;;;;;5.63;4.80;;;3.00;99.90;;;;;;5012920;28;20475;-57
2022/12/08 01:29:16;;;;;;;7.53;4.93;;;2.90;99.90;;;;;;5015825;28;20462;-57
2022/12/08 01:31:44;;;;;;;5.77;4.27;;;2.90;99.90;;;;;;5014965;28;20841;-55
2022/12/08 01:34:12;;;;;;;6.63;4.33;;;2.90;99.90;;;;;;5015007;28;20489;-57
2022/12/08 01:36:41;;;;;;;5.50;4.80;;;2.90;99.90;;;;;;5015820;28;20466;-57
2022/12/08 01:39:14;;;;;;;5.60;4.43;;;2.90;99.90;;;;;;5015926;28;20493;-57
2022/12/08 01:41:44;;;;;;;4.93;4.30;;;2.90;99.90;;;;;;5015357;28;20863;-57
2022/12/08 01:44:52;;;;;;;6.27;4.57;;;2.90;99.90;;;;;;5015779;28;20489;-57
2022/12/08 01:47:20;;;;;;;7.07;4.30;;;2.90;99.90;;;;;;5015791;28;20492;-57
2022/12/08 01:49:49;;;;;;;5.07;4.40;;;2.90;99.90;;;;;;5015546;28;20995;-57
2022/12/08 01:52:21;;;;;;;6.07;4.67;;;2.90;99.90;;;;;;5015458;28;20965;-58
2022/12/08 01:54:53;;;;;;;6.57;4.77;;;3.00;99.90;;;;;;5014919;28;20499;-57
2022/12/08 01:57:27;;;;;;;5.17;3.83;;;2.90;99.90;;;;;;5015129;28;20468;-57
2022/12/08 02:00:02;;;;;;;5.03;4.10;;;2.90;99.90;;;;;;5015483;28;20502;-57
2022/12/08 02:02:39;;;;;;;5.23;3.93;;;2.90;99.90;;;;;;5014251;28;20485;-57
2022/12/08 02:05:09;;;;;;;5.20;4.00;;;2.90;99.90;;;;;;5015082;28;20483;-57
2022/12/08 02:07:37;;;;;;;5.23;3.70;;;2.90;99.90;;;;;;5014910;28;20532;-57
2022/12/08 02:10:06;;;;;;;6.27;3.80;;;2.90;99.90;;;;;;5015325;28;20491;-57
2022/12/08 02:12:36;;;;;;;5.43;3.90;;;2.90;99.90;;;;;;5014902;28;20956;-57
2022/12/08 02:15:05;;;;;;;4.57;3.43;;;2.90;99.90;;;;;;5015142;28;20488;-57
2022/12/08 02:17:48;;;;;;;6.00;4.00;;;2.90;99.90;;;;;;5014529;28;20530;-56
2022/12/08 02:20:45;;;;;;;4.17;3.53;;;2.90;99.90;;;;;;5014752;28;20480;-57
2022/12/08 02:23:24;;;;;;;4.83;3.80;;;2.90;99.90;;;;;;5007196;28;20995;-58
2022/12/08 02:26:36;;;;;;;4.03;3.17;;;2.90;99.90;;;;;;5014807;28;20473;-56
2022/12/08 02:29:33;;;;;;;3.63;3.17;;;2.90;99.90;;;;;;5014933;28;20535;-57
2022/12/08 02:32:22;;;;;;;4.37;3.00;;;2.90;99.90;;;;;;5013906;28;20995;-57
2022/12/08 02:34:58;;;;;;;3.70;3.23;;;2.90;99.90;;;;;;5012154;28;21067;-57
2022/12/08 02:37:31;;;;;;;4.50;2.97;;;2.90;99.90;;;;;;5014356;28;20480;-58
2022/12/08 02:40:06;;;;;;;4.30;3.43;;;3.00;99.90;;;;;;5014469;28;20473;-57
2022/12/08 02:42:42;;;;;;;6.57;3.67;;;2.90;99.90;;;;;;5014294;28;20449;-57
2022/12/08 02:45:14;;;;;;;3.87;3.50;;;2.90;99.90;;;;;;5014387;28;20476;-57
2022/12/08 02:47:43;;;;;;;4.37;3.40;;;2.90;99.90;;;;;;5014135;28;20469;-57
2022/12/08 02:50:13;;;;;;;4.33;3.37;;;2.90;99.90;;;;;;5014246;28;20474;-57
2022/12/08 02:52:43;;;;;;;5.00;3.27;;;2.90;99.90;;;;;;5014200;28;20477;-57
2022/12/08 02:55:24;;;;;;;3.60;3.20;;;2.90;99.90;;;;;;5001785;28;20485;-57
2022/12/08 02:58:21;;;;;;;4.00;3.33;;;2.90;99.90;;;;;;5014349;28;20975;-57
2022/12/08 03:01:02;;;;;;;4.03;3.33;;;2.90;99.90;;;;;;5013481;28;20481;-57
2022/12/08 03:03:41;;;;;;;5.17;3.30;;;2.80;99.90;;;;;;5013787;28;20482;-57
2022/12/08 03:06:22;;;;;;;4.90;3.17;;;2.90;99.90;;;;;;5014017;28;20485;-57
2022/12/08 03:08:55;;;;;;;3.43;3.03;;;2.80;99.90;;;;;;5013956;28;20470;-57
2022/12/08 03:11:28;;;;;;;3.77;2.67;;;2.80;99.90;;;;;;5014227;28;20983;-57
2022/12/08 03:14:00;;;;;;;2.60;2.40;;;2.80;99.90;;;;;;5014110;28;20478;-58
2022/12/08 03:16:30;;;;;;;2.30;1.80;;;2.80;99.90;;;;;;5013875;28;20539;-57
2022/12/08 03:19:03;;;;;;;2.47;2.00;;;2.80;99.90;;;;;;5013761;28;20480;-58
2022/12/08 03:21:35;;;;;;;2.97;1.90;;;2.80;99.90;;;;;;5013762;28;20473;-57
2022/12/08 03:24:06;;;;;;;1.87;1.70;;;2.80;99.90;;;;;;5013887;28;20478;-57
2022/12/08 03:26:41;;;;;;;2.17;1.70;;;2.80;99.90;;;;;;5013281;28;20466;-57
2022/12/08 03:29:09;;;;;;;2.03;1.50;;;2.90;99.90;;;;;;4993171;28;20527;-57
2022/12/08 03:31:41;;;;;;;1.50;1.40;;;2.80;99.90;;;;;;5006851;28;20900;-57
2022/12/08 03:34:12;;;;;;;1.97;1.30;;;2.80;99.90;;;;;;5005449;28;20916;-57
2022/12/08 03:36:41;;;;;;;1.40;1.30;;;2.80;99.90;;;;;;5013238;28;20499;-56
2022/12/08 03:39:09;;;;;;;1.80;1.70;;;2.80;99.90;;;;;;5013540;28;20464;-57
2022/12/08 03:41:37;;;;;;;1.90;1.80;;;2.80;99.90;;;;;;5013328;28;20477;-57
2022/12/08 03:44:05;;;;;;;1.97;1.80;;;2.80;99.90;;;;;;5013625;28;20867;-57
2022/12/08 03:46:33;;;;;;;2.57;1.93;;;2.80;99.90;;;;;;5013078;28;20494;-57
2022/12/08 03:49:01;;;;;;;2.20;2.00;;;2.80;99.90;;;;;;5013232;28;20464;-57
2022/12/08 03:51:29;;;;;;;1.97;1.67;;;2.80;99.90;;;;;;5013230;28;20479;-57
2022/12/08 03:53:59;;;;;;;4.53;2.30;;;2.70;99.90;;;;;;5012589;28;20468;-57
2022/12/08 03:56:29;;;;;;;2.40;2.20;;;2.70;99.90;;;;;;5012766;28;20819;-58
2022/12/08 03:58:57;;;;;;;2.00;1.80;;;2.70;99.90;;;;;;5013374;28;20479;-57
2022/12/08 04:01:26;;;;;;;2.60;2.10;;;2.60;99.90;;;;;;5012193;28;21050;-57
2022/12/08 04:03:54;;;;;;;2.70;2.13;;;2.60;99.90;;;;;;5013040;28;20465;-58
2022/12/08 04:06:22;;;;;;;2.80;2.50;;;2.60;99.90;;;;;;5013046;28;20988;-57
2022/12/08 04:08:51;;;;;;;2.60;2.30;;;2.60;99.90;;;;;;5013068;28;20469;-57
2022/12/08 04:11:21;;;;;;;2.47;2.27;;;2.70;99.90;;;;;;5013329;28;20549;-58
2022/12/08 04:13:49;;;;;;;2.77;2.10;;;2.70;99.90;;;;;;5012832;28;20472;-57
2022/12/08 04:16:19;;;;;;;2.40;2.20;;;2.70;99.90;;;;;;5012854;28;20492;-57
2022/12/08 04:18:47;;;;;;;2.30;2.10;;;2.70;99.90;;;;;;5013123;28;20471;-57
2022/12/08 04:21:16;;;;;;;2.70;2.40;;;2.60;99.90;;;;;;5013034;28;20460;-57
2022/12/08 04:23:44;;;;;;;3.00;2.57;;;2.60;99.90;;;;;;5012689;28;20504;-56
2022/12/08 04:26:13;;;;;;;2.77;2.40;;;2.60;99.90;;;;;;5013012;28;20468;-57
2022/12/08 04:28:43;;;;;;;2.77;2.47;;;2.60;99.90;;;;;;5012991;28;20528;-57
2022/12/08 04:31:11;;;;;;;2.80;2.50;;;2.50;99.90;;;;;;5012216;28;20531;-57
2022/12/08 04:33:39;;;;;;;2.80;2.60;;;2.50;99.90;;;;;;5012775;28;20523;-57
2022/12/08 04:36:09;;;;;;;2.80;2.60;;;2.50;99.90;;;;;;5013238;28;20490;-57
2022/12/08 04:38:37;;;;;;;2.43;2.23;;;2.50;99.90;;;;;;5013078;28;20496;-58
2022/12/08 04:41:05;;;;;;;2.20;2.00;;;2.40;99.90;;;;;;5016770;28;20511;-57
2022/12/08 04:43:33;;;;;;;2.57;2.37;;;2.40;99.90;;;;;;5016844;28;20959;-57
2022/12/08 04:46:05;;;;;;;2.37;2.17;;;2.30;99.90;;;;;;5016683;28;20471;-57
2022/12/08 04:48:33;;;;;;;1.90;1.80;;;2.30;99.90;;;;;;5016844;28;20519;-57
2022/12/08 04:51:01;;;;;;;2.20;1.80;;;2.40;99.90;;;;;;5016939;28;20467;-57
2022/12/08 04:53:29;;;;;;;1.70;1.60;;;2.40;99.90;;;;;;5016289;28;20460;-58
2022/12/08 04:55:57;;;;;;;1.90;1.80;;;2.40;99.90;;;;;;5016452;28;20499;-57
2022/12/08 04:58:25;;;;;;;2.07;1.97;;;2.40;99.90;;;;;;5016487;28;20473;-55
2022/12/08 05:00:53;;;;;;;2.13;1.97;;;2.40;99.90;;;;;;5015742;28;20495;-57
2022/12/08 05:03:23;;;;;;;2.30;2.10;;;2.40;99.90;;;;;;5016062;28;20552;-57
2022/12/08 05:05:55;;;;;;;2.50;2.30;;;2.40;99.90;;;;;;5016159;28;20480;-56
2022/12/08 05:08:23;;;;;;;2.40;2.20;;;2.40;99.90;;;;;;5016563;28;20472;-57
2022/12/08 05:10:52;;;;;;;2.50;2.30;;;2.40;99.90;;;;;;5015534;28;20681;-56
2022/12/08 05:13:20;;;;;;;2.77;2.50;;;2.50;99.90;;;;;;5016009;28;20472;-57
2022/12/08 05:15:48;;;;;;;3.00;2.70;;;2.40;99.90;;;;;;5015967;28;20503;-57
2022/12/08 05:18:16;;;;;;;3.10;2.80;;;2.40;99.90;;;;;;5015249;28;20469;-57
2022/12/08 05:20:45;;;;;;;2.87;2.67;;;2.40;99.90;;;;;;5016200;28;20469;-57
2022/12/08 05:23:13;;;;;;;3.40;3.10;;;2.40;99.90;;;;;;5016289;28;20466;-57
2022/12/08 05:25:41;;;;;;;3.20;3.00;;;2.40;99.90;;;;;;5012910;28;20489;-57
2022/12/08 05:28:09;;;;;;;3.50;3.20;;;2.30;99.90;;;;;;5011809;28;20835;-57
2022/12/08 05:30:58;;;;;;;3.40;3.10;;;2.30;99.90;;;;;;5013836;28;20477;-56
2022/12/08 05:33:26;;;;;;;3.20;2.90;;;2.30;99.90;;;;;;5014821;28;20464;-57
2022/12/08 05:35:55;;;;;;;4.90;3.17;;;2.40;99.90;;;;;;5013984;28;20481;-57
2022/12/08 05:38:23;;;;;;;3.80;3.40;;;2.40;99.90;;;;;;5015520;28;20471;-57
2022/12/08 05:40:51;;;;;;;4.93;4.00;;;2.40;99.90;;;;;;5015860;28;20472;-57
2022/12/08 05:43:19;;;;;;;4.13;3.73;;;2.40;99.90;;;;;;5015382;28;20471;-57
2022/12/08 05:45:47;;;;;;;3.93;3.50;;;2.40;99.90;;;;;;5015052;28;20481;-57
2022/12/08 05:48:16;;;;;;;4.07;3.77;;;2.40;99.90;;;;;;5015000;28;20586;-57
2022/12/08 05:50:46;;;;;;;5.80;3.70;;;2.40;99.90;;;;;;5014394;28;20945;-57
2022/12/08 05:53:16;;;;;;;4.30;3.90;;;2.30;99.90;;;;;;5015775;28;20465;-57
2022/12/08 05:55:44;;;;;;;4.53;4.13;;;2.30;99.90;;;;;;5015262;28;20472;-56
2022/12/08 05:58:13;;;;;;;4.70;4.10;;;2.30;99.90;;;;;;5015176;28;20470;-57
2022/12/08 06:00:42;;;;;;;4.77;4.37;;;2.30;99.90;;;;;;5014686;28;20476;-57
2022/12/08 06:03:11;;;;;;;4.60;4.10;;;2.40;99.90;;;;;;5006696;28;20473;-57
2022/12/08 06:05:40;;;;;;;6.53;4.13;;;2.40;99.90;;;;;;5012558;28;20484;-57
2022/12/08 06:08:09;;;;;;;7.03;5.23;;;2.50;99.90;;;;;;5014768;28;20470;-57
2022/12/08 06:10:40;;;;;;;6.93;5.50;;;2.40;99.90;;;;;;5009866;28;20460;-58
2022/12/08 06:13:08;;;;;;;5.93;5.13;;;2.40;99.90;;;;;;5014247;28;20813;-57
2022/12/08 06:15:38;;;;;;;5.63;4.80;;;2.40;99.90;;;;;;5012464;28;20465;-57
2022/12/08 06:18:06;;;;;;;5.67;4.93;;;2.40;99.90;;;;;;5013266;28;20750;-57
2022/12/08 06:20:34;;;;;;;5.40;4.90;;;2.40;99.90;;;;;;5013703;28;20480;-56
2022/12/08 06:23:03;;;;;;;4.87;4.30;;;2.40;99.90;;;;;;5013886;28;20488;-57
2022/12/08 06:25:31;;;;;;;5.67;5.07;;;2.50;99.90;;;;;;5013079;28;20817;-56
2022/12/08 06:28:00;;;;;;;5.80;4.17;;;2.40;99.90;;;;;;5014238;28;20817;-57
2022/12/08 06:30:28;;;;;;;5.53;4.97;;;2.40;99.90;;;;;;5013963;28;20465;-56
2022/12/08 06:32:56;;;;;;;5.10;4.60;;;2.30;99.90;;;;;;5014027;28;20527;-57
2022/12/08 06:35:24;;;;;;;4.60;4.20;;;2.30;99.90;;;;;;5012320;28;20481;-56
2022/12/08 06:37:52;;;;;;;5.60;4.53;;;2.30;99.90;;;;;;5014404;28;20540;-57
2022/12/08 06:40:20;;;;;;;4.67;4.17;;;2.30;99.90;;;;;;5014580;28;20453;-56
2022/12/08 06:42:48;;;;;;;4.57;4.00;;;2.30;99.90;;;;;;5014053;28;20476;-57
2022/12/08 06:45:18;;;;;;;5.27;3.77;;;2.30;99.90;;;;;;5012610;28;20867;-56
2022/12/08 06:47:46;;;;;;;4.17;3.87;;;2.30;99.90;;;;;;5013908;28;20491;-57
2022/12/08 06:50:14;;;;;;;4.20;3.80;;;2.30;99.90;;;;;;5014022;28;20806;-57
2022/12/08 06:52:42;;;;;;;4.00;3.60;;;2.30;99.90;;;;;;5012938;28;20532;-57
2022/12/08 06:55:28;;;;;;;4.33;3.83;;;2.40;99.90;;;;;;5012527;28;21007;-57
2022/12/08 06:58:17;;;;;;;3.87;3.57;;;2.30;99.90;;;;;;5013838;28;20495;-57
2022/12/08 07:00:47;;;;;;;5.13;4.40;;;2.30;99.90;;;;;;5013619;28;20802;-56
2022/12/08 07:03:15;;;;;;;4.30;3.90;;;2.30;99.90;;;;;;5014010;28;20492;-57
2022/12/08 07:05:43;;;;;;;4.73;3.80;;;2.30;99.90;;;;;;5011727;28;20471;-56
2022/12/08 07:08:11;;;;;;;3.93;3.53;;;2.30;99.90;;;;;;5014021;28;20477;-56
2022/12/08 07:10:39;;;;;;;4.60;4.00;;;2.30;99.90;;;;;;5013745;28;20869;-55
2022/12/08 07:13:07;;;;;;;4.10;3.70;;;2.30;99.90;;;;;;5013936;28;20480;-57
2022/12/08 07:15:35;;;;;;;4.50;4.10;;;2.30;99.90;;;;;;5011787;28;20461;-57
2022/12/08 07:18:05;;;;;;;4.27;3.70;;;2.20;99.90;;;;;;5013374;28;20489;-56
2022/12/08 07:20:33;;;;;;;4.97;3.40;;;2.20;99.90;;;;;;5013921;28;20522;-56
2022/12/08 07:23:01;;;;;;;4.03;3.73;;;2.20;99.90;;;;;;5012815;28;20527;-56
2022/12/08 07:25:29;;;;;;;4.77;3.63;;;2.30;99.90;;;;;;5011942;28;20500;-56
2022/12/08 07:27:57;;;;;;;4.30;3.80;;;2.30;99.90;;;;;;5013575;28;20468;-57
2022/12/08 07:30:25;;;;;;;5.27;4.10;;;2.30;99.90;;;;;;5013158;28;20465;-55
2022/12/08 07:32:53;;;;;;;4.73;4.30;;;2.30;99.90;;;;;;5013048;28;20473;-57
2022/12/08 07:35:22;;;;;;;5.80;5.00;;;2.30;99.90;;;;;;5011718;28;20476;-57
2022/12/08 07:37:50;;;;;;;5.67;5.07;;;2.30;99.90;;;;;;5012690;28;20491;-56
2022/12/08 07:40:18;;;;;;;6.37;5.20;;;2.30;99.90;;;;;;5013508;28;21687;-57
2022/12/08 07:42:46;;;;;;;6.57;5.27;;;2.30;99.90;;;;;;5013164;28;20469;-56
2022/12/08 07:45:14;;;;;;;7.40;5.63;;;2.30;99.90;;;;;;5011209;28;20473;-57
2022/12/08 07:47:42;;;;;;;6.90;5.33;;;2.30;99.90;;;;;;5012683;28;20475;-56
2022/12/08 07:50:11;;;;;;;6.03;4.80;;;2.30;99.90;;;;;;5013101;28;20529;-57
2022/12/08 07:52:40;;;;;;;5.67;5.00;;;2.40;99.90;;;;;;5012798;28;20469;-57
2022/12/08 07:55:09;;;;;;;5.90;5.00;;;2.40;99.90;;;;;;5010175;28;20468;-57
2022/12/08 07:57:37;;;;;;;6.13;4.83;;;2.40;99.90;;;;;;5013076;28;21062;-56
2022/12/08 08:00:06;;;;;;;6.00;5.40;;;2.30;99.90;;;;;;5013229;28;20459;-56
2022/12/08 08:02:38;;;;;;;5.37;4.60;;;2.30;99.90;;;;;;5009662;28;20467;-55
2022/12/08 08:05:07;;;;;;;5.30;4.80;;;2.40;99.90;;;;;;5000008;28;20491;-57
2022/12/08 08:07:36;;;;;;;6.13;4.77;;;2.30;99.90;;;;;;5003560;28;20506;-58
2022/12/08 08:10:07;;;;;;;5.83;5.27;;;2.30;99.90;;;;;;5003320;28;20810;-57
2022/12/08 08:12:35;;;;;;;5.47;4.97;;;2.30;99.90;;;;;;5003532;28;20473;-57
2022/12/08 08:15:06;;;;;;;5.10;4.50;;;2.30;99.90;;;;;;5000778;28;20792;-56
2022/12/08 08:17:35;;;;;;;5.60;4.47;;;2.30;99.90;;;;;;5004228;28;20489;-57
2022/12/08 08:20:05;;;;;;;5.03;4.20;;;2.30;99.90;;;;;;5003763;28;20568;-56
2022/12/08 08:22:34;;;;;;;5.13;4.17;;;2.30;99.90;;;;;;5003909;28;20875;-57
2022/12/08 08:25:02;;;;;;;4.20;3.80;;;2.30;99.90;;;;;;5001135;28;20489;-57
2022/12/08 08:27:32;;;;;;;4.40;3.83;;;2.30;99.90;;;;;;5004215;28;20472;-58
2022/12/08 08:30:00;;;;;;;4.53;3.60;;;2.30;99.90;;;;;;5004146;28;20488;-57
2022/12/08 08:32:28;;;;;;;3.90;3.50;;;2.30;99.90;;;;;;5003541;28;20896;-56
2022/12/08 08:34:56;;;;;;;3.70;3.40;;;2.30;99.90;;;;;;5001215;28;20494;-56
2022/12/08 08:37:24;;;;;;;3.90;3.30;;;2.30;99.90;;;;;;5004239;28;20494;-57
2022/12/08 08:39:52;;;;;;;3.93;3.43;;;2.30;99.90;;;;;;5004220;28;20489;-56
2022/12/08 08:42:20;;;;;;;3.97;3.57;;;2.30;99.90;;;;;;5004067;28;20491;-56
2022/12/08 08:44:50;;;;;;;3.93;3.53;;;2.30;99.90;;;;;;5002304;28;20479;-56
2022/12/08 08:47:18;;;;;;;4.50;3.50;;;2.30;99.90;;;;;;5004559;28;20478;-57
2022/12/08 08:49:46;;;;;;;3.97;3.57;;;2.40;99.90;;;;;;5003578;28;20487;-56
2022/12/08 08:52:14;;;;;;;3.63;3.33;;;2.30;99.90;;;;;;5003654;28;20528;-57
2022/12/08 08:54:42;;;;;;;3.77;3.37;;;2.30;99.90;;;;;;5001597;28;20992;-56
2022/12/08 08:57:10;;;;;;;3.33;3.03;;;2.40;99.90;;;;;;5004054;28;20531;-56
2022/12/08 08:59:38;;;;;;;3.80;3.40;;;2.30;99.90;;;;;;5003174;28;20549;-57
2022/12/08 09:02:15;;;;;;;3.80;3.40;;;2.30;99.90;;;;;;5003471;28;20488;-57
2022/12/08 09:04:43;;;;;;;3.93;2.70;;;2.30;99.90;;;;;;5001102;28;20512;-57
2022/12/08 09:07:12;;;;;;;3.53;2.93;;;2.30;99.90;;;;;;5003303;28;20567;-56
2022/12/08 09:09:40;;;;;;;3.40;3.10;;;2.20;99.90;;;;;;5003462;28;20480;-56
2022/12/08 09:12:08;;;;;;;2.30;2.10;;;2.30;99.90;;;;;;5004712;28;20454;-58
2022/12/08 09:14:36;;;;;;;2.90;2.70;;;2.30;99.90;;;;;;5001633;28;21016;-57
2022/12/08 09:17:07;;;;;;;3.13;2.80;;;2.30;99.90;;;;;;5003590;28;21944;-57
2022/12/08 09:19:35;;;;;;;2.77;2.57;;;2.30;99.90;;;;;;5003784;28;20824;-58
2022/12/08 09:22:04;;;;;;;2.93;2.63;;;2.30;99.90;;;;;;5003862;28;21644;-57
2022/12/08 09:24:32;;;;;;;3.23;2.63;;;2.30;99.90;;;;;;5001376;28;20806;-56
2022/12/08 09:27:00;;;;;;;3.73;3.00;;;2.40;99.90;;;;;;5005808;28;20893;-56
2022/12/08 09:29:29;;;;;;;3.30;2.70;;;2.30;99.90;;;;;;5007098;28;20478;-56
2022/12/08 09:32:03;;;;;;;3.43;3.00;;;2.30;99.90;;;;;;5006832;28;20471;-56
2022/12/08 09:34:32;;;;;;;3.43;2.77;;;2.30;99.90;;;;;;5004735;28;20468;-57
2022/12/08 09:37:00;;;;;;;3.17;2.87;;;2.30;99.90;;;;;;5007297;28;20499;-56
2022/12/08 09:39:28;;;;;;;3.37;3.00;;;2.40;99.90;;;;;;5006235;28;20496;-55
2022/12/08 09:42:00;;;;;;;3.57;3.00;;;2.30;99.90;;;;;;5007235;28;20477;-57
2022/12/08 09:44:54;;;;;;;3.10;2.80;;;2.40;99.90;;;;;;5004735;28;20581;-57
2022/12/08 09:47:26;;;;;;;3.43;3.13;;;2.40;99.90;;;;;;5006407;28;20465;-58
2022/12/08 09:50:11;;;;;;;3.40;3.10;;;2.30;99.90;;;;;;5006477;28;21348;-57
2022/12/08 09:52:45;;;;;;;3.13;2.80;;;2.40;99.90;;;;;;5005751;28;20466;-56
2022/12/08 09:55:21;;;;;;;3.30;2.73;;;2.40;99.90;;;;;;5003919;28;20817;-57
2022/12/08 09:57:57;;;;;;;3.63;3.03;;;2.40;99.90;;;;;;5005599;28;20485;-57
2022/12/08 10:00:25;;;;;;;3.40;3.10;;;2.40;99.90;;;;;;5005153;28;20478;-57
2022/12/08 10:02:53;;;;;;;3.20;2.90;;;2.40;99.90;;;;;;5006445;28;20470;-57
2022/12/08 10:05:24;;;;;;;3.93;2.77;;;2.40;99.90;;;;;;5005102;28;20487;-57
2022/12/08 10:08:04;;;;;;;3.30;2.83;;;2.50;99.90;;;;;;5006611;28;20865;-57
2022/12/08 10:10:39;;;;;;;3.63;2.70;;;2.60;99.90;;;;;;5006247;28;20464;-57
2022/12/08 10:13:16;;;;;;;3.00;2.60;;;2.70;99.90;;;;;;5006250;28;20461;-56
2022/12/08 10:15:47;;;;;;;4.00;2.87;;;2.90;99.90;;;;;;5004993;28;20491;-55
2022/12/08 10:18:18;;;;;;;3.17;2.70;;;3.00;99.90;;;;;;5007264;28;20487;-56
2022/12/08 10:20:49;;;;;;;2.80;2.57;;;3.00;99.90;;;;;;5005779;28;20502;-57
2022/12/08 10:23:26;;;;;;;2.77;2.57;;;2.90;99.90;;;;;;5007056;28;20460;-57
2022/12/08 10:26:00;;;;;;;2.67;2.47;;;2.90;99.90;;;;;;5003982;28;20492;-58
2022/12/08 10:28:28;;;;;;;3.00;2.80;;;3.00;99.90;;;;;;5005758;28;20480;-57
2022/12/08 10:30:57;;;;;;;2.60;2.40;;;3.00;99.90;;;;;;5005542;28;20488;-58
2022/12/08 10:33:25;;;;;;;3.10;2.77;;;3.20;99.90;;;;;;5005617;28;20477;-57
2022/12/08 10:35:57;;;;;;;3.00;2.80;;;3.20;99.90;;;;;;5004605;28;20827;-57
2022/12/08 10:38:29;;;;;;;3.30;3.00;;;3.20;99.90;;;;;;5006415;28;21057;-58
2022/12/08 10:41:04;;;;;;;3.20;2.90;;;3.20;99.90;;;;;;5004969;28;20490;-57
2022/12/08 10:43:34;;;;;;;3.47;3.17;;;3.30;99.90;;;;;;5004435;28;20486;-57
2022/12/08 10:46:11;;;;;;;3.40;3.10;;;3.10;99.90;;;;;;5004080;28;20997;-58
2022/12/08 10:48:48;;;;;;;3.50;3.20;;;3.00;99.90;;;;;;5005485;28;20557;-57
2022/12/08 10:51:27;;;;;;;3.60;3.30;;;2.90;99.90;;;;;;5005309;28;20481;-58
2022/12/08 10:53:55;;;;;;;4.20;3.77;;;3.10;99.90;;;;;;5004059;28;20502;-58
2022/12/08 10:56:27;;;;;;;4.40;4.00;;;3.50;99.90;;;;;;5003991;28;20571;-59
2022/12/08 10:59:14;;;;;;;3.57;3.23;;;3.80;99.90;;;;;;5005583;28;20549;-58
2022/12/08 11:01:46;;;;;;;3.90;3.50;;;3.90;99.90;;;;;;5003260;28;20538;-57
2022/12/08 11:04:18;;;;;;;3.43;3.13;;;3.80;99.90;;;;;;5002104;28;21011;-58
2022/12/08 11:06:49;;;;;;;4.27;3.87;;;4.00;99.90;;;;;;5004861;28;20482;-58
2022/12/08 11:09:31;;;;;;;3.67;3.37;;;4.00;99.90;;;;;;5003434;28;20462;-59
2022/12/08 11:12:00;;;;;;;3.30;3.00;;;3.80;99.90;;;;;;5004010;28;20968;-57
2022/12/08 11:14:30;;;;;;;4.00;2.83;;;3.60;99.90;;;;;;5001975;28;20483;-59
2022/12/08 11:17:05;;;;;;;3.47;3.03;;;3.60;99.90;;;;;;5004143;28;20480;-59
2022/12/08 11:19:37;;;;;;;3.20;2.90;;;3.60;99.90;;;;;;5004104;28;20491;-58
2022/12/08 11:22:24;;;;;;;4.00;2.90;;;3.50;99.90;;;;;;5004343;28;20466;-58
2022/12/08 11:25:01;;;;;;;3.80;2.20;;;3.50;99.90;;;;;;5001280;28;20939;-58
2022/12/08 11:27:32;;;;;;;3.00;2.70;;;3.40;99.90;;;;;;5003741;28;20480;-59
2022/12/08 11:30:02;;;;;;;3.10;2.33;;;3.40;99.90;;;;;;5003950;28;20464;-58
2022/12/08 11:32:34;;;;;;;3.83;2.40;;;3.40;99.90;;;;;;5002798;28;20598;-58
2022/12/08 11:35:05;;;;;;;2.20;2.00;;;3.40;99.90;;;;;;5001727;28;20481;-57
2022/12/08 11:37:39;;;;;;;2.43;2.23;;;3.40;99.90;;;;;;5003218;28;20473;-58
2022/12/08 11:40:16;;;;;;;2.23;2.03;;;3.40;99.90;;;;;;5003073;28;20493;-58
2022/12/08 11:42:53;;;;;;;2.00;1.90;;;3.40;99.90;;;;;;5003387;28;20960;-58
2022/12/08 11:45:26;;;;;;;2.70;2.50;;;3.40;99.90;;;;;;5000851;28;20895;-59
2022/12/08 11:48:03;;;;;;;2.37;2.10;;;3.50;99.90;;;;;;5003462;28;20968;-59
2022/12/08 11:50:41;;;;;;;2.23;1.77;;;3.50;99.90;;;;;;5003475;28;20464;-58
2022/12/08 11:53:18;;;;;;;2.20;2.00;;;3.50;99.90;;;;;;5004236;28;20481;-59
2022/12/08 11:55:51;;;;;;;2.17;1.90;;;3.60;99.90;;;;;;4999850;28;20486;-58
2022/12/08 11:58:24;;;;;;;2.13;1.60;;;3.60;99.90;;;;;;5003900;28;20982;-59
2022/12/08 12:00:52;;;;;;;1.80;1.50;;;3.50;99.90;;;;;;5003239;28;20486;-59
2022/12/08 12:03:28;;;;;;;1.77;1.67;;;3.60;99.90;;;;;;5004438;28;21013;-58
2022/12/08 12:06:14;;;;;;;1.77;1.50;;;3.70;99.90;;;;;;5003318;28;20877;-58
2022/12/08 12:09:11;;;;;;;1.90;1.80;;;3.80;99.90;;;;;;5005014;28;20471;-58
2022/12/08 12:14:55;;;;;;;1.80;1.70;;;3.90;99.90;;;;;;5000250;28;20522;-57
2022/12/08 12:17:39;;;;;;;2.10;1.90;;;3.90;99.90;;;;;;5003050;28;20979;-58
2022/12/08 12:20:16;;;;;;;1.83;1.73;;;4.00;99.90;;;;;;5003489;28;20501;-57
2022/12/08 12:22:49;;;;;;;1.90;1.70;;;4.00;99.90;;;;;;5003111;28;20489;-57
2022/12/08 12:25:22;;;;;;;2.93;1.70;;;4.00;99.90;;;;;;5000855;28;20474;-58
2022/12/08 12:27:52;;;;;;;2.97;1.80;;;3.90;99.90;;;;;;5003299;28;20481;-58
2022/12/08 12:30:26;;;;;;;1.67;1.57;;;3.90;99.90;;;;;;5005135;28;20475;-59
2022/12/08 12:32:57;;;;;;;3.67;1.50;;;3.90;99.90;;;;;;5004951;28;20835;-57
2022/12/08 12:35:32;;;;;;;1.90;1.60;;;3.90;99.90;;;;;;5003112;28;20497;-58
2022/12/08 12:38:59;;;;;;;2.10;1.80;;;3.90;99.90;;;;;;5004921;28;20474;-57
2022/12/08 12:41:01;;;;;;;2.33;1.57;;;3.90;99.90;;;;;;5005186;28;20623;-58
2022/12/08 12:43:32;;;;;;;2.17;1.90;;;3.80;99.90;;;;;;5005276;28;20802;-56
2022/12/08 12:46:53;;;;;;;2.40;1.70;;;3.80;99.90;;;;;;5003241;28;21516;-57
2022/12/08 12:50:04;;;;;;;2.80;1.83;;;3.80;99.90;;;;;;5001573;28;20990;-57
2022/12/08 12:52:47;;;;;;;1.87;1.63;;;3.80;99.90;;;;;;5004817;28;20486;-59
2022/12/08 12:55:52;;;;;;;1.70;1.60;;;3.90;99.90;;;;;;5001502;28;20468;-58
2022/12/08 12:58:41;;;;;;;2.63;1.90;;;4.00;99.90;;;;;;5001634;28;21066;-58
2022/12/08 13:01:55;;;;;;;3.93;2.10;;;4.10;99.90;;;;;;5005036;28;20476;-58
2022/12/08 13:04:35;;;;;;;2.40;2.20;;;4.10;99.90;;;;;;5003732;28;20471;-58
2022/12/08 13:07:04;;;;;;;5.60;2.23;;;4.00;99.90;;;;;;5006891;28;20514;-58
2022/12/08 13:09:36;;;;;;;2.53;2.27;;;3.90;99.90;;;;;;5005930;28;20490;-56
2022/12/08 13:12:10;;;;;;;3.10;2.17;;;3.90;99.90;;;;;;5006865;28;20491;-57
2022/12/08 13:14:46;;;;;;;3.37;2.67;;;3.90;99.90;;;;;;5005814;28;20909;-58
2022/12/08 13:17:22;;;;;;;3.27;2.77;;;3.80;99.90;;;;;;5005757;28;20466;-57
2022/12/08 13:19:56;;;;;;;2.70;2.50;;;3.70;99.90;;;;;;5006194;28;20493;-57
2022/12/08 13:22:57;;;;;;;3.30;3.00;;;3.70;99.90;;;;;;5005939;28;20475;-57
2022/12/08 13:26:07;;;;;;;2.87;2.67;;;3.70;99.90;;;;;;5002256;28;20478;-58
2022/12/08 13:29:20;;;;;;;4.83;2.73;;;3.80;99.90;;;;;;4973406;28;20501;-56
2022/12/08 13:31:51;;;;;;;3.67;2.93;;;3.90;99.90;;;;;;5005103;28;20662;-58